createdAt,value
2023-01-27T00:00:15.297Z,2.97
2023-01-27T00:00:40.324Z,2.55
2023-01-27T00:01:04.512Z,1.88
2023-01-27T00:01:26.582Z,2.47
2023-01-27T00:01:51.441Z,2.10
2023-01-27T00:02:13.501Z,2.10
2023-01-27T00:02:38.365Z,1.67
2023-01-27T00:03:01.558Z,2.10
2023-01-27T00:03:23.816Z,2.10
2023-01-27T00:03:46.511Z,1.63
2023-01-27T00:04:09.589Z,2.25
2023-01-27T00:04:31.973Z,2.53
2023-01-27T00:04:53.732Z,1.70
2023-01-27T00:05:17.022Z,2.10
2023-01-27T00:05:41.052Z,2.50
2023-01-27T00:06:04.921Z,2.33
2023-01-27T00:06:27.090Z,1.67
2023-01-27T00:06:50.425Z,1.98
2023-01-27T00:07:12.159Z,2.00
2023-01-27T00:07:34.912Z,2.22
2023-01-27T00:07:58.836Z,1.88
2023-01-27T00:08:22.873Z,2.42
2023-01-27T00:08:45.054Z,2.13
2023-01-27T00:09:06.773Z,2.42
2023-01-27T00:09:28.771Z,2.05
2023-01-27T00:09:56.883Z,2.70
2023-01-27T00:10:20.097Z,1.80
2023-01-27T00:10:42.321Z,2.40
2023-01-27T00:11:22.930Z,2.72
2023-01-27T00:12:03.360Z,1.58
2023-01-27T00:12:44.862Z,1.48
2023-01-27T00:13:25.670Z,2.53
2023-01-27T00:13:50.600Z,1.85
2023-01-27T00:14:13.373Z,2.53
2023-01-27T00:14:35.639Z,1.90
2023-01-27T00:14:57.577Z,1.80
2023-01-27T00:15:20.863Z,2.45
2023-01-27T00:15:42.837Z,2.28
2023-01-27T00:16:07.387Z,1.63
2023-01-27T00:16:30.556Z,1.45
2023-01-27T00:16:53.004Z,1.42
2023-01-27T00:17:14.939Z,1.90
2023-01-27T00:17:38.660Z,2.22
2023-01-27T00:18:02.025Z,1.63
2023-01-27T00:18:24.025Z,1.70
2023-01-27T00:18:45.841Z,1.60
2023-01-27T00:19:07.777Z,1.83
2023-01-27T00:19:30.859Z,1.98
2023-01-27T00:19:52.687Z,1.83
2023-01-27T00:20:34.751Z,1.92
2023-01-27T00:21:14.707Z,2.10
2023-01-27T00:22:03.521Z,1.75
2023-01-27T00:22:44.001Z,2.05
2023-01-27T00:23:24.456Z,1.73
2023-01-27T00:24:04.676Z,2.00
2023-01-27T00:24:40.154Z,2.33
2023-01-27T00:25:03.242Z,2.15
2023-01-27T00:25:24.990Z,2.60
2023-01-27T00:25:50.290Z,2.40
2023-01-27T00:26:16.061Z,2.00
2023-01-27T00:26:38.584Z,1.80
2023-01-27T00:27:00.680Z,1.90
2023-01-27T00:27:22.608Z,1.92
2023-01-27T00:27:44.561Z,2.10
2023-01-27T00:28:08.532Z,1.85
2023-01-27T00:28:31.483Z,2.00
2023-01-27T00:28:53.382Z,2.45
2023-01-27T00:29:16.575Z,2.15
2023-01-27T00:29:39.042Z,1.83
2023-01-27T00:30:01.114Z,2.35
2023-01-27T00:30:23.325Z,2.00
2023-01-27T00:30:45.862Z,1.70
2023-01-27T00:31:30.268Z,2.60
2023-01-27T00:32:10.621Z,1.73
2023-01-27T00:32:51.781Z,2.42
2023-01-27T00:33:27.523Z,1.77
2023-01-27T00:33:50.240Z,1.67
2023-01-27T00:34:12.336Z,1.92
2023-01-27T00:34:34.600Z,1.77
2023-01-27T00:34:57.983Z,1.70
2023-01-27T00:35:22.503Z,1.95
2023-01-27T00:35:44.959Z,1.55
2023-01-27T00:36:08.031Z,1.95
2023-01-27T00:36:30.244Z,2.70
2023-01-27T00:36:55.987Z,1.73
2023-01-27T00:37:19.147Z,1.75
2023-01-27T00:37:41.353Z,1.90
2023-01-27T00:38:03.406Z,2.17
2023-01-27T00:38:31.431Z,1.70
2023-01-27T00:38:53.349Z,1.80
2023-01-27T00:39:15.362Z,1.98
2023-01-27T00:39:39.047Z,3.03
2023-01-27T00:40:02.090Z,1.98
2023-01-27T00:40:24.241Z,2.05
2023-01-27T00:41:06.035Z,1.73
2023-01-27T00:41:28.997Z,2.10
2023-01-27T00:41:50.983Z,1.58
2023-01-27T00:42:14.168Z,2.22
2023-01-27T00:42:35.994Z,2.38
2023-01-27T00:43:00.664Z,1.83
2023-01-27T00:43:22.596Z,1.52
2023-01-27T00:43:44.458Z,1.55
2023-01-27T00:44:12.934Z,2.28
2023-01-27T00:44:35.270Z,2.47
2023-01-27T00:45:17.084Z,2.15
2023-01-27T00:45:51.378Z,2.10
2023-01-27T00:46:15.683Z,2.08
2023-01-27T00:46:38.925Z,2.28
2023-01-27T00:47:03.854Z,2.35
2023-01-27T00:47:26.426Z,2.90
2023-01-27T00:47:48.330Z,2.17
2023-01-27T00:48:10.583Z,1.80
2023-01-27T00:48:33.593Z,2.00
2023-01-27T00:48:55.688Z,2.40
2023-01-27T00:49:18.361Z,1.65
2023-01-27T00:49:40.193Z,1.83
2023-01-27T00:50:04.364Z,1.58
2023-01-27T00:50:28.021Z,1.85
2023-01-27T00:50:49.955Z,1.90
2023-01-27T00:51:13.798Z,1.45
2023-01-27T00:51:37.471Z,2.03
2023-01-27T00:51:59.655Z,1.85
2023-01-27T00:52:21.435Z,1.70
2023-01-27T00:52:43.310Z,1.92
2023-01-27T00:53:07.585Z,1.95
2023-01-27T00:53:31.204Z,1.43
2023-01-27T00:53:53.226Z,1.40
2023-01-27T00:54:15.111Z,1.17
2023-01-27T00:54:38.181Z,1.92
2023-01-27T00:55:01.199Z,1.65
2023-01-27T00:55:24.064Z,1.67
2023-01-27T00:55:51.143Z,2.20
2023-01-27T00:56:15.120Z,1.92
2023-01-27T00:56:41.296Z,1.98
2023-01-27T00:57:03.423Z,2.58
2023-01-27T00:57:30.287Z,2.03
2023-01-27T00:57:52.613Z,1.85
2023-01-27T00:58:15.988Z,1.90
2023-01-27T00:58:38.916Z,1.77
2023-01-27T00:59:01.277Z,1.63
2023-01-27T00:59:23.449Z,1.70
2023-01-27T00:59:46.949Z,1.48
2023-01-27T01:00:10.630Z,1.90
2023-01-27T01:00:32.849Z,1.50
2023-01-27T01:00:55.586Z,1.80
2023-01-27T01:01:22.731Z,1.60
2023-01-27T01:01:49.996Z,1.55
2023-01-27T01:02:16.286Z,1.90
2023-01-27T01:02:40.473Z,2.40
2023-01-27T01:03:04.379Z,1.70
2023-01-27T01:03:29.065Z,2.13
2023-01-27T01:03:51.282Z,1.95
2023-01-27T01:04:14.915Z,1.77
2023-01-27T01:04:37.520Z,2.20
2023-01-27T01:05:01.320Z,2.00
2023-01-27T01:05:27.781Z,1.88
2023-01-27T01:05:54.693Z,1.73
2023-01-27T01:06:18.273Z,1.63
2023-01-27T01:06:40.013Z,1.85
2023-01-27T01:07:02.061Z,1.45
2023-01-27T01:07:24.187Z,1.73
2023-01-27T01:07:47.206Z,1.77
2023-01-27T01:08:09.076Z,1.75
2023-01-27T01:08:31.858Z,2.38
2023-01-27T01:08:56.804Z,2.20
2023-01-27T01:09:19.818Z,1.55
2023-01-27T01:09:42.956Z,1.80
2023-01-27T01:10:05.905Z,1.95
2023-01-27T01:10:27.788Z,1.88
2023-01-27T01:10:51.035Z,1.50
2023-01-27T01:11:15.674Z,2.03
2023-01-27T01:11:37.644Z,1.85
2023-01-27T01:11:59.998Z,2.45
2023-01-27T01:12:23.094Z,1.67
2023-01-27T01:12:45.756Z,1.50
2023-01-27T01:13:08.215Z,1.60
2023-01-27T01:13:30.241Z,1.63
2023-01-27T01:13:56.098Z,1.38
2023-01-27T01:14:18.395Z,1.80
2023-01-27T01:14:40.097Z,1.33
2023-01-27T01:15:01.864Z,1.40
2023-01-27T01:15:26.467Z,1.73
2023-01-27T01:15:51.739Z,1.65
2023-01-27T01:16:16.090Z,1.50
2023-01-27T01:16:39.652Z,1.70
2023-01-27T01:17:01.727Z,1.90
2023-01-27T01:17:23.563Z,1.58
2023-01-27T01:17:46.678Z,2.25
2023-01-27T01:18:09.667Z,1.75
2023-01-27T01:18:31.446Z,1.90
2023-01-27T01:18:53.803Z,1.70
2023-01-27T01:19:17.406Z,1.40
2023-01-27T01:19:39.167Z,1.60
2023-01-27T01:20:01.150Z,1.48
2023-01-27T01:20:24.141Z,1.65
2023-01-27T01:20:47.991Z,1.88
2023-01-27T01:21:10.525Z,1.58
2023-01-27T01:21:43.029Z,1.70
2023-01-27T01:22:15.240Z,1.40
2023-01-27T01:22:39.036Z,1.45
2023-01-27T01:23:02.050Z,1.38
2023-01-27T01:23:24.060Z,1.55
2023-01-27T01:23:47.774Z,1.90
2023-01-27T01:24:11.454Z,2.13
2023-01-27T01:24:35.721Z,1.67
2023-01-27T01:24:58.195Z,1.30
2023-01-27T01:25:23.282Z,1.10
2023-01-27T01:25:52.944Z,1.67
2023-01-27T01:26:16.988Z,1.25
2023-01-27T01:26:42.185Z,1.45
2023-01-27T01:27:06.101Z,1.42
2023-01-27T01:27:29.533Z,1.98
2023-01-27T01:27:54.730Z,1.63
2023-01-27T01:28:17.166Z,1.58
2023-01-27T01:28:43.325Z,1.63
2023-01-27T01:29:07.378Z,1.73
2023-01-27T01:29:29.564Z,1.50
2023-01-27T01:29:52.472Z,1.25
2023-01-27T01:30:21.061Z,1.83
2023-01-27T01:30:44.278Z,1.73
2023-01-27T01:31:09.071Z,1.50
2023-01-27T01:31:31.417Z,1.27
2023-01-27T01:31:58.581Z,1.20
2023-01-27T01:32:21.335Z,1.92
2023-01-27T01:32:44.588Z,1.67
2023-01-27T01:33:08.838Z,1.50
2023-01-27T01:33:32.025Z,1.73
2023-01-27T01:33:56.161Z,1.42
2023-01-27T01:34:19.713Z,1.40
2023-01-27T01:34:44.286Z,1.70
2023-01-27T01:35:09.013Z,1.38
2023-01-27T01:35:34.586Z,1.40
2023-01-27T01:35:57.173Z,1.52
2023-01-27T01:36:21.311Z,2.00
2023-01-27T01:36:44.459Z,1.60
2023-01-27T01:37:09.726Z,1.38
2023-01-27T01:37:31.978Z,1.42
2023-01-27T01:37:57.437Z,1.88
2023-01-27T01:38:20.783Z,1.88
2023-01-27T01:38:44.664Z,1.42
2023-01-27T01:39:08.214Z,1.35
2023-01-27T01:39:33.026Z,1.60
2023-01-27T01:39:55.556Z,1.48
2023-01-27T01:40:25.609Z,1.60
2023-01-27T01:40:48.529Z,1.58
2023-01-27T01:41:16.728Z,1.60
2023-01-27T01:41:39.451Z,1.65
2023-01-27T01:42:11.378Z,1.38
2023-01-27T01:42:54.169Z,1.52
2023-01-27T01:43:17.411Z,1.00
2023-01-27T01:43:39.299Z,1.17
2023-01-27T01:44:21.238Z,1.52
2023-01-27T01:44:44.275Z,1.60
2023-01-27T01:45:46.172Z,1.10
2023-01-27T01:46:10.982Z,1.40
2023-01-27T01:46:34.667Z,1.45
2023-01-27T01:46:58.291Z,1.30
2023-01-27T01:47:21.814Z,2.08
2023-01-27T01:47:44.885Z,1.67
2023-01-27T01:48:12.196Z,1.30
2023-01-27T01:48:36.708Z,1.10
2023-01-27T01:49:03.042Z,1.05
2023-01-27T01:49:29.689Z,1.70
2023-01-27T01:49:51.663Z,1.95
2023-01-27T01:50:14.908Z,1.73
2023-01-27T01:50:41.164Z,1.17
2023-01-27T01:51:10.970Z,1.33
2023-01-27T01:51:35.288Z,1.48
2023-01-27T01:52:01.464Z,1.60
2023-01-27T01:52:23.637Z,1.10
2023-01-27T01:52:46.520Z,1.40
2023-01-27T01:53:12.348Z,1.35
2023-01-27T01:53:42.104Z,1.50
2023-01-27T01:54:09.658Z,1.13
2023-01-27T01:54:35.721Z,1.58
2023-01-27T01:55:00.192Z,1.63
2023-01-27T01:55:24.165Z,1.85
2023-01-27T01:55:48.935Z,1.20
2023-01-27T01:56:17.971Z,1.15
2023-01-27T01:56:44.151Z,1.05
2023-01-27T01:57:11.225Z,1.27
2023-01-27T01:57:37.703Z,1.05
2023-01-27T01:58:07.408Z,1.23
2023-01-27T01:58:31.829Z,1.38
2023-01-27T01:58:58.184Z,1.17
2023-01-27T01:59:27.078Z,1.30
2023-01-27T01:59:53.984Z,1.02
2023-01-27T02:00:16.605Z,1.27
2023-01-27T02:00:43.435Z,1.58
2023-01-27T02:01:13.905Z,1.10
2023-01-27T02:01:47.987Z,1.13
2023-01-27T02:02:14.779Z,0.90
2023-01-27T02:02:43.771Z,1.42
2023-01-27T02:03:07.842Z,1.10
2023-01-27T02:03:30.840Z,1.60
2023-01-27T02:03:57.731Z,1.17
2023-01-27T02:04:25.423Z,1.20
2023-01-27T02:04:51.883Z,1.20
2023-01-27T02:05:17.481Z,1.45
2023-01-27T02:05:44.313Z,1.88
2023-01-27T02:06:09.054Z,1.20
2023-01-27T02:06:36.745Z,1.02
2023-01-27T02:07:03.794Z,1.85
2023-01-27T02:07:31.977Z,1.10
2023-01-27T02:07:59.189Z,1.10
2023-01-27T02:08:25.908Z,1.48
2023-01-27T02:08:50.783Z,1.10
2023-01-27T02:09:14.861Z,0.98
2023-01-27T02:09:39.025Z,1.10
2023-01-27T02:10:02.510Z,1.08
2023-01-27T02:10:25.816Z,1.25
2023-01-27T02:10:49.584Z,1.30
2023-01-27T02:11:12.033Z,1.25
2023-01-27T02:11:34.076Z,1.25
2023-01-27T02:11:57.798Z,1.50
2023-01-27T02:12:22.032Z,1.02
2023-01-27T02:12:44.157Z,1.00
2023-01-27T02:13:06.518Z,1.15
2023-01-27T02:13:30.666Z,1.02
2023-01-27T02:13:53.968Z,1.05
2023-01-27T02:14:18.079Z,0.88
2023-01-27T02:14:41.517Z,1.10
2023-01-27T02:15:05.483Z,0.95
2023-01-27T02:15:30.493Z,1.05
2023-01-27T02:15:54.903Z,1.40
2023-01-27T02:16:17.129Z,1.23
2023-01-27T02:16:39.601Z,0.95
2023-01-27T02:17:05.324Z,1.05
2023-01-27T02:17:30.347Z,1.30
2023-01-27T02:17:53.516Z,1.08
2023-01-27T02:18:15.510Z,1.20
2023-01-27T02:18:41.000Z,2.03
2023-01-27T02:19:03.782Z,1.52
2023-01-27T02:19:36.915Z,1.33
2023-01-27T02:20:06.392Z,1.00
2023-01-27T02:20:35.856Z,1.10
2023-01-27T02:20:58.751Z,1.25
2023-01-27T02:21:22.157Z,1.20
2023-01-27T02:21:44.263Z,1.48
2023-01-27T02:22:16.284Z,1.02
2023-01-27T02:22:46.850Z,1.13
2023-01-27T02:23:21.993Z,1.10
2023-01-27T02:23:50.590Z,1.48
2023-01-27T02:24:13.886Z,1.48
2023-01-27T02:24:45.636Z,0.77
2023-01-27T02:25:17.065Z,1.20
2023-01-27T02:25:59.593Z,1.70
2023-01-27T02:26:24.050Z,0.73
2023-01-27T02:26:46.820Z,1.02
2023-01-27T02:27:11.573Z,1.00
2023-01-27T02:27:35.052Z,0.93
2023-01-27T02:27:57.399Z,2.00
2023-01-27T02:28:21.921Z,1.50
2023-01-27T02:28:43.744Z,1.30
2023-01-27T02:29:09.798Z,1.20
2023-01-27T02:29:32.816Z,0.88
2023-01-27T02:29:54.828Z,1.00
2023-01-27T02:30:17.502Z,1.23
2023-01-27T02:30:39.491Z,1.15
2023-01-27T02:31:03.107Z,0.85
2023-01-27T02:31:26.879Z,1.20
2023-01-27T02:31:50.555Z,1.35
2023-01-27T02:32:22.910Z,1.40
2023-01-27T02:32:46.244Z,1.25
2023-01-27T02:33:11.802Z,1.35
2023-01-27T02:33:34.154Z,1.30
2023-01-27T02:34:02.279Z,1.20
2023-01-27T02:34:33.960Z,1.10
2023-01-27T02:34:57.635Z,1.23
2023-01-27T02:35:25.815Z,1.20
2023-01-27T02:35:59.554Z,1.00
2023-01-27T02:36:21.409Z,0.90
2023-01-27T02:36:47.833Z,0.90
2023-01-27T02:37:10.933Z,1.50
2023-01-27T02:37:35.557Z,1.58
2023-01-27T02:37:58.079Z,1.40
2023-01-27T02:38:20.910Z,1.20
2023-01-27T02:38:45.805Z,1.20
2023-01-27T02:39:11.298Z,0.85
2023-01-27T02:39:43.001Z,1.20
2023-01-27T02:40:06.163Z,1.38
2023-01-27T02:40:29.929Z,1.23
2023-01-27T02:40:56.995Z,1.42
2023-01-27T02:41:23.233Z,1.20
2023-01-27T02:41:49.144Z,0.90
2023-01-27T02:42:15.773Z,0.90
2023-01-27T02:42:38.140Z,1.00
2023-01-27T02:43:00.660Z,1.27
2023-01-27T02:43:25.030Z,1.08
2023-01-27T02:43:49.216Z,1.70
2023-01-27T02:44:11.221Z,0.77
2023-01-27T02:44:34.055Z,1.33
2023-01-27T02:44:58.745Z,1.27
2023-01-27T02:45:21.069Z,1.63
2023-01-27T02:45:44.610Z,1.88
2023-01-27T02:46:09.138Z,1.80
2023-01-27T02:46:34.287Z,1.63
2023-01-27T02:46:57.182Z,1.10
2023-01-27T02:47:25.224Z,1.40
2023-01-27T02:47:48.081Z,1.10
2023-01-27T02:48:14.494Z,0.77
2023-01-27T02:48:36.813Z,1.33
2023-01-27T02:49:00.479Z,1.27
2023-01-27T02:49:24.956Z,1.10
2023-01-27T02:49:47.608Z,1.67
2023-01-27T02:50:12.023Z,1.52
2023-01-27T02:50:35.566Z,1.38
2023-01-27T02:51:00.361Z,1.25
2023-01-27T02:51:24.861Z,1.08
2023-01-27T02:51:49.376Z,1.08
2023-01-27T02:52:16.198Z,1.40
2023-01-27T02:52:39.554Z,1.15
2023-01-27T02:53:02.039Z,1.00
2023-01-27T02:53:27.283Z,1.15
2023-01-27T02:53:50.455Z,1.10
2023-01-27T02:54:13.697Z,1.20
2023-01-27T02:54:37.610Z,1.50
2023-01-27T02:54:59.772Z,1.23
2023-01-27T02:55:21.616Z,1.17
2023-01-27T02:55:45.265Z,1.17
2023-01-27T02:56:10.997Z,0.98
2023-01-27T02:56:33.494Z,1.05
2023-01-27T02:56:55.752Z,1.08
2023-01-27T02:57:21.005Z,1.15
2023-01-27T02:58:05.212Z,1.40
2023-01-27T02:58:40.693Z,1.00
2023-01-27T02:59:08.773Z,1.00
2023-01-27T02:59:36.072Z,1.00
2023-01-27T02:59:58.552Z,0.90
2023-01-27T03:00:20.926Z,0.73
2023-01-27T03:00:45.828Z,0.70
2023-01-27T03:01:10.444Z,1.48
2023-01-27T03:01:33.229Z,1.00
2023-01-27T03:01:56.915Z,1.17
2023-01-27T03:02:30.756Z,0.93
2023-01-27T03:02:55.835Z,1.50
2023-01-27T03:03:17.751Z,1.20
2023-01-27T03:03:47.241Z,0.80
2023-01-27T03:04:16.123Z,0.90
2023-01-27T03:04:39.445Z,1.02
2023-01-27T03:05:01.370Z,0.88
2023-01-27T03:05:23.432Z,1.08
2023-01-27T03:05:46.711Z,0.90
2023-01-27T03:06:09.850Z,1.20
2023-01-27T03:06:31.848Z,0.88
2023-01-27T03:06:53.805Z,1.08
2023-01-27T03:07:15.915Z,0.95
2023-01-27T03:07:39.077Z,0.77
2023-01-27T03:08:01.078Z,0.80
2023-01-27T03:08:23.081Z,1.20
2023-01-27T03:08:45.152Z,0.77
2023-01-27T03:09:10.993Z,1.33
2023-01-27T03:09:33.248Z,1.20
2023-01-27T03:09:56.212Z,1.10
2023-01-27T03:10:18.268Z,0.85
2023-01-27T03:10:41.536Z,0.80
2023-01-27T03:11:03.486Z,0.80
2023-01-27T03:11:45.632Z,0.90
2023-01-27T03:12:22.921Z,0.63
2023-01-27T03:12:47.089Z,0.93
2023-01-27T03:13:08.923Z,0.70
2023-01-27T03:13:34.950Z,0.65
2023-01-27T03:13:56.716Z,0.70
2023-01-27T03:14:18.458Z,0.75
2023-01-27T03:15:01.252Z,1.15
2023-01-27T03:15:42.193Z,1.13
2023-01-27T03:16:25.653Z,0.80
2023-01-27T03:17:07.802Z,1.20
2023-01-27T03:17:49.512Z,0.90
2023-01-27T03:18:19.107Z,0.95
2023-01-27T03:18:41.539Z,0.80
2023-01-27T03:19:04.316Z,1.30
2023-01-27T03:19:27.257Z,1.02
2023-01-27T03:19:53.418Z,0.88
2023-01-27T03:20:15.993Z,0.77
2023-01-27T03:20:39.809Z,1.00
2023-01-27T03:21:07.242Z,1.08
2023-01-27T03:21:29.491Z,1.00
2023-01-27T03:21:54.789Z,0.77
2023-01-27T03:22:18.035Z,0.80
2023-01-27T03:22:40.125Z,0.98
2023-01-27T03:23:03.046Z,0.75
2023-01-27T03:23:29.440Z,0.73
2023-01-27T03:23:51.255Z,0.65
2023-01-27T03:24:18.471Z,1.00
2023-01-27T03:25:19.450Z,0.57
2023-01-27T03:25:43.140Z,0.50
2023-01-27T03:26:09.008Z,0.80
2023-01-27T03:26:38.504Z,0.63
2023-01-27T03:27:02.276Z,0.68
2023-01-27T03:27:42.677Z,0.68
2023-01-27T03:28:16.832Z,1.00
2023-01-27T03:29:27.535Z,1.00
2023-01-27T03:29:55.722Z,0.90
2023-01-27T03:30:19.298Z,0.70
2023-01-27T03:30:49.821Z,0.77
2023-01-27T03:31:20.053Z,0.95
2023-01-27T03:31:49.808Z,0.57
2023-01-27T03:32:11.759Z,1.13
2023-01-27T03:32:34.379Z,1.10
2023-01-27T03:33:32.519Z,0.80
2023-01-27T03:33:58.219Z,0.70
2023-01-27T03:34:40.397Z,0.70
2023-01-27T03:35:09.385Z,0.68
2023-01-27T03:35:39.186Z,0.70
2023-01-27T03:36:21.963Z,0.80
2023-01-27T03:37:04.482Z,0.98
2023-01-27T03:37:45.636Z,0.80
2023-01-27T03:38:31.415Z,0.75
2023-01-27T03:39:11.863Z,1.00
2023-01-27T03:39:52.508Z,1.00
2023-01-27T03:40:34.067Z,0.90
2023-01-27T03:41:14.888Z,0.82
2023-01-27T03:41:56.655Z,0.68
2023-01-27T03:42:40.146Z,0.52
2023-01-27T03:43:20.909Z,0.90
2023-01-27T03:44:01.590Z,0.90
2023-01-27T03:44:42.597Z,0.70
2023-01-27T03:45:23.458Z,0.70
2023-01-27T03:46:08.390Z,0.60
2023-01-27T03:46:32.954Z,0.90
2023-01-27T03:46:54.934Z,0.80
2023-01-27T03:47:16.719Z,0.82
2023-01-27T03:47:38.520Z,0.80
2023-01-27T03:48:00.271Z,0.70
2023-01-27T03:48:23.279Z,0.80
2023-01-27T03:48:51.670Z,0.80
2023-01-27T03:49:14.687Z,0.88
2023-01-27T03:49:36.701Z,0.70
2023-01-27T03:49:58.663Z,0.68
2023-01-27T03:50:20.526Z,0.80
2023-01-27T03:50:44.125Z,0.60
2023-01-27T03:51:09.472Z,0.60
2023-01-27T03:51:31.334Z,0.60
2023-01-27T03:51:53.118Z,0.77
2023-01-27T03:52:17.286Z,0.95
2023-01-27T03:52:39.329Z,0.88
2023-01-27T03:53:04.126Z,0.90
2023-01-27T03:53:26.109Z,0.75
2023-01-27T03:53:49.232Z,0.75
2023-01-27T03:54:10.994Z,0.70
2023-01-27T03:54:32.813Z,0.90
2023-01-27T03:54:54.752Z,0.82
2023-01-27T03:55:16.738Z,0.80
2023-01-27T03:55:39.201Z,0.70
2023-01-27T03:56:02.422Z,0.90
2023-01-27T03:56:24.360Z,0.80
2023-01-27T03:56:48.353Z,0.85
2023-01-27T03:57:12.711Z,0.80
2023-01-27T03:57:36.965Z,0.65
2023-01-27T03:58:20.519Z,1.00
2023-01-27T03:58:44.821Z,0.60
2023-01-27T03:59:07.556Z,0.70
2023-01-27T03:59:29.725Z,0.90
2023-01-27T03:59:53.827Z,0.82
2023-01-27T04:00:18.828Z,0.85
2023-01-27T04:00:43.207Z,1.15
2023-01-27T04:01:10.110Z,0.95
2023-01-27T04:01:32.282Z,0.70
2023-01-27T04:02:12.949Z,0.82
2023-01-27T04:02:57.278Z,0.90
2023-01-27T04:03:39.037Z,0.60
2023-01-27T04:04:19.848Z,0.63
2023-01-27T04:05:00.259Z,0.70
2023-01-27T04:05:40.749Z,1.05
2023-01-27T04:06:27.001Z,0.95
2023-01-27T04:06:58.362Z,0.60
2023-01-27T04:07:22.324Z,1.00
2023-01-27T04:07:44.507Z,0.80
2023-01-27T04:08:09.524Z,0.60
2023-01-27T04:08:32.561Z,0.80
2023-01-27T04:08:58.573Z,0.50
2023-01-27T04:09:24.232Z,1.00
2023-01-27T04:09:49.691Z,0.70
2023-01-27T04:10:12.471Z,0.70
2023-01-27T04:10:34.702Z,0.73
2023-01-27T04:11:17.553Z,1.00
2023-01-27T04:11:58.603Z,1.00
2023-01-27T04:12:26.496Z,1.10
2023-01-27T04:12:49.311Z,0.88
2023-01-27T04:13:11.720Z,0.73
2023-01-27T04:13:33.723Z,1.10
2023-01-27T04:14:00.668Z,1.15
2023-01-27T04:14:27.028Z,0.60
2023-01-27T04:14:49.458Z,1.10
2023-01-27T04:15:12.436Z,1.10
2023-01-27T04:15:37.059Z,0.80
2023-01-27T04:16:00.510Z,0.85
2023-01-27T04:16:29.090Z,0.98
2023-01-27T04:16:54.616Z,0.90
2023-01-27T04:17:19.543Z,1.05
2023-01-27T04:17:42.886Z,0.80
2023-01-27T04:18:05.068Z,0.95
2023-01-27T04:18:27.189Z,0.90
2023-01-27T04:18:51.464Z,0.80
2023-01-27T04:19:15.749Z,0.50
2023-01-27T04:19:37.847Z,0.70
2023-01-27T04:20:01.790Z,0.88
2023-01-27T04:20:25.148Z,0.93
2023-01-27T04:20:49.848Z,0.73
2023-01-27T04:21:14.695Z,0.70
2023-01-27T04:21:37.231Z,0.82
2023-01-27T04:22:02.364Z,0.80
2023-01-27T04:22:24.515Z,0.90
2023-01-27T04:22:48.719Z,0.90
2023-01-27T04:23:10.540Z,0.70
2023-01-27T04:23:33.142Z,0.80
2023-01-27T04:23:55.305Z,0.80
2023-01-27T04:24:22.720Z,1.07
2023-01-27T04:24:46.290Z,0.85
2023-01-27T04:25:11.587Z,1.05
2023-01-27T04:25:34.530Z,1.00
2023-01-27T04:25:56.727Z,1.00
2023-01-27T04:26:21.622Z,0.95
2023-01-27T04:26:46.895Z,0.90
2023-01-27T04:27:11.832Z,0.88
2023-01-27T04:27:35.767Z,0.93
2023-01-27T04:27:58.950Z,1.05
2023-01-27T04:28:37.332Z,1.00
2023-01-27T04:29:07.641Z,0.63
2023-01-27T04:29:35.436Z,0.80
2023-01-27T04:29:57.621Z,0.80
2023-01-27T04:30:21.695Z,1.00
2023-01-27T04:30:43.975Z,1.00
2023-01-27T04:31:06.711Z,1.10
2023-01-27T04:31:30.495Z,0.77
2023-01-27T04:31:53.428Z,0.80
2023-01-27T04:32:17.802Z,0.90
2023-01-27T04:32:40.304Z,0.82
2023-01-27T04:33:04.837Z,0.90
2023-01-27T04:33:28.732Z,1.15
2023-01-27T04:33:50.942Z,0.80
2023-01-27T04:34:15.495Z,1.00
2023-01-27T04:34:39.211Z,0.80
2023-01-27T04:35:03.631Z,0.88
2023-01-27T04:35:38.468Z,0.90
2023-01-27T04:36:03.678Z,0.90
2023-01-27T04:36:28.171Z,0.80
2023-01-27T04:36:50.433Z,1.20
2023-01-27T04:37:12.525Z,0.93
2023-01-27T04:37:37.262Z,1.20
2023-01-27T04:37:59.421Z,0.82
2023-01-27T04:38:24.926Z,1.00
2023-01-27T04:38:51.128Z,0.90
2023-01-27T04:39:16.303Z,0.75
2023-01-27T04:39:41.418Z,0.70
2023-01-27T04:40:04.011Z,0.80
2023-01-27T04:40:29.018Z,0.90
2023-01-27T04:40:52.157Z,1.10
2023-01-27T04:41:14.050Z,1.00
2023-01-27T04:41:36.727Z,1.08
2023-01-27T04:41:58.991Z,1.02
2023-01-27T04:42:23.766Z,0.95
2023-01-27T04:42:49.499Z,1.08
2023-01-27T04:43:12.723Z,0.90
2023-01-27T04:43:34.964Z,1.10
2023-01-27T04:43:57.271Z,0.70
2023-01-27T04:44:22.939Z,0.95
2023-01-27T04:44:48.394Z,0.95
2023-01-27T04:45:13.742Z,1.05
2023-01-27T04:45:36.044Z,0.77
2023-01-27T04:45:59.287Z,0.75
2023-01-27T04:46:23.721Z,1.15
2023-01-27T04:46:45.757Z,1.02
2023-01-27T04:47:15.303Z,0.85
2023-01-27T04:47:39.967Z,0.98
2023-01-27T04:48:02.172Z,1.10
2023-01-27T04:48:27.131Z,1.02
2023-01-27T04:48:49.749Z,1.13
2023-01-27T04:49:14.232Z,0.98
2023-01-27T04:49:36.294Z,1.00
2023-01-27T04:50:00.231Z,1.00
2023-01-27T04:50:22.528Z,1.00
2023-01-27T04:50:47.511Z,1.10
2023-01-27T04:51:11.020Z,0.82
2023-01-27T04:51:34.392Z,0.82
2023-01-27T04:52:06.192Z,1.25
2023-01-27T04:52:35.963Z,1.10
2023-01-27T04:53:00.828Z,0.75
2023-01-27T04:53:22.942Z,1.20
2023-01-27T04:53:46.732Z,1.25
2023-01-27T04:54:12.542Z,1.60
2023-01-27T04:54:36.746Z,0.88
2023-01-27T04:55:00.695Z,1.17
2023-01-27T04:55:25.862Z,0.90
2023-01-27T04:55:50.143Z,1.05
2023-01-27T04:56:23.012Z,0.70
2023-01-27T04:56:58.246Z,0.88
2023-01-27T04:57:21.455Z,0.70
2023-01-27T04:57:43.859Z,1.17
2023-01-27T04:58:08.296Z,1.60
2023-01-27T04:58:36.985Z,1.00
2023-01-27T04:59:04.860Z,0.95
2023-01-27T04:59:28.091Z,1.20
2023-01-27T04:59:52.933Z,1.30
2023-01-27T05:00:16.650Z,0.85
2023-01-27T05:00:40.612Z,0.80
2023-01-27T05:01:02.668Z,1.00
2023-01-27T05:01:24.471Z,0.95
2023-01-27T05:01:46.790Z,1.10
2023-01-27T05:02:09.980Z,1.55
2023-01-27T05:02:32.271Z,1.33
2023-01-27T05:02:54.195Z,1.00
2023-01-27T05:03:16.057Z,1.05
2023-01-27T05:03:38.114Z,1.02
2023-01-27T05:04:01.248Z,1.02
2023-01-27T05:04:23.603Z,1.52
2023-01-27T05:04:45.451Z,1.13
2023-01-27T05:05:08.601Z,0.80
2023-01-27T05:05:30.409Z,1.08
2023-01-27T05:05:53.771Z,1.20
2023-01-27T05:06:16.897Z,1.23
2023-01-27T05:06:38.738Z,1.00
2023-01-27T05:07:04.469Z,1.00
2023-01-27T05:07:26.755Z,1.00
2023-01-27T05:07:49.065Z,1.08
2023-01-27T05:08:12.482Z,1.55
2023-01-27T05:08:34.583Z,1.42
2023-01-27T05:08:59.860Z,1.10
2023-01-27T05:09:21.974Z,1.20
2023-01-27T05:09:43.828Z,0.80
2023-01-27T05:10:06.831Z,0.90
2023-01-27T05:10:31.825Z,1.10
2023-01-27T05:10:55.687Z,1.00
2023-01-27T05:11:22.621Z,1.08
2023-01-27T05:11:45.147Z,1.27
2023-01-27T05:12:11.431Z,1.20
2023-01-27T05:12:39.065Z,1.13
2023-01-27T05:13:09.704Z,1.00
2023-01-27T05:13:38.267Z,1.17
2023-01-27T05:14:01.857Z,0.93
2023-01-27T05:14:26.503Z,1.00
2023-01-27T05:14:49.847Z,0.90
2023-01-27T05:15:13.787Z,1.27
2023-01-27T05:15:39.386Z,1.10
2023-01-27T05:16:14.663Z,1.00
2023-01-27T05:16:40.027Z,1.00
2023-01-27T05:17:06.646Z,0.88
2023-01-27T05:17:33.491Z,1.27
2023-01-27T05:17:57.137Z,1.15
2023-01-27T05:18:27.485Z,0.90
2023-01-27T05:19:03.732Z,1.13
2023-01-27T05:19:29.023Z,1.42
2023-01-27T05:19:55.446Z,1.15
2023-01-27T05:20:18.044Z,1.00
2023-01-27T05:20:42.401Z,0.80
2023-01-27T05:21:05.878Z,1.40
2023-01-27T05:21:28.525Z,0.95
2023-01-27T05:21:50.495Z,0.85
2023-01-27T05:22:18.324Z,1.00
2023-01-27T05:22:40.319Z,0.93
2023-01-27T05:23:20.542Z,1.40
2023-01-27T05:23:44.998Z,1.02
2023-01-27T05:24:07.117Z,0.90
2023-01-27T05:24:29.585Z,1.00
2023-01-27T05:24:51.495Z,1.25
2023-01-27T05:25:14.269Z,1.55
2023-01-27T05:25:37.828Z,1.02
2023-01-27T05:26:05.471Z,1.10
2023-01-27T05:26:28.667Z,1.10
2023-01-27T05:26:53.405Z,1.20
2023-01-27T05:27:15.566Z,1.33
2023-01-27T05:27:37.777Z,1.00
2023-01-27T05:28:00.097Z,0.88
2023-01-27T05:28:21.886Z,0.88
2023-01-27T05:28:48.101Z,0.95
2023-01-27T05:29:10.437Z,1.27
2023-01-27T05:29:32.999Z,1.02
2023-01-27T05:29:55.113Z,0.82
2023-01-27T05:30:18.765Z,0.90
2023-01-27T05:30:41.256Z,1.02
2023-01-27T05:31:05.414Z,1.02
2023-01-27T05:31:28.896Z,1.00
2023-01-27T05:31:52.231Z,1.38
2023-01-27T05:32:14.343Z,1.15
2023-01-27T05:32:36.326Z,1.08
2023-01-27T05:32:58.062Z,0.93
2023-01-27T05:33:19.977Z,1.20
2023-01-27T05:33:43.970Z,1.23
2023-01-27T05:34:05.856Z,1.45
2023-01-27T05:34:27.794Z,1.17
2023-01-27T05:34:49.643Z,1.10
2023-01-27T05:35:12.943Z,1.33
2023-01-27T05:35:35.413Z,1.02
2023-01-27T05:36:00.432Z,0.80
2023-01-27T05:36:24.323Z,1.55
2023-01-27T05:36:47.686Z,1.58
2023-01-27T05:37:09.514Z,0.93
2023-01-27T05:37:31.344Z,0.77
2023-01-27T05:37:53.278Z,0.90
2023-01-27T05:38:15.054Z,1.17
2023-01-27T05:38:38.299Z,1.00
2023-01-27T05:39:00.572Z,0.93
2023-01-27T05:39:22.381Z,0.85
2023-01-27T05:39:44.404Z,1.00
2023-01-27T05:40:07.934Z,0.90
2023-01-27T05:40:31.035Z,1.27
2023-01-27T05:40:56.905Z,1.20
2023-01-27T05:41:19.951Z,0.98